Time;durP1;ratioP1;P1;durP2;ratioP2;P2;SDS_P1;SDS_P2;PMS_P1;PMS_P2;Temp;Humidity;BMP_temperature;BMP_pressure;BME280_temperature;BME280_humidity;BME280_pressure;Samples;Min_cycle;Max_cycle;Signal;HPM_P1;HPM_P2
2023/11/30 00:00:13;;;;;;;17.50;13.87;;;5.00;99.90;;;;;;5015065;28;20179;-67
2023/11/30 00:02:39;;;;;;;17.27;12.73;;;5.00;99.90;;;;;;5013151;28;20705;-66
2023/11/30 00:05:07;;;;;;;18.27;12.93;;;5.00;99.90;;;;;;5013729;28;20188;-67
2023/11/30 00:07:33;;;;;;;17.25;13.02;;;5.10;99.90;;;;;;4997364;28;20535;-67
2023/11/30 00:09:59;;;;;;;17.15;12.32;;;5.00;99.90;;;;;;4996247;28;20179;-66
2023/11/30 00:12:24;;;;;;;19.63;12.83;;;5.10;99.90;;;;;;5014828;28;20178;-67
2023/11/30 00:14:50;;;;;;;17.57;13.67;;;4.60;99.90;;;;;;5013880;28;20694;-67
2023/11/30 00:17:16;;;;;;;14.67;12.50;;;4.90;99.90;;;;;;5014417;28;20172;-67
2023/11/30 00:19:42;;;;;;;16.63;13.13;;;4.90;99.90;;;;;;4996429;28;20176;-67
2023/11/30 00:22:07;;;;;;;17.17;12.50;;;4.90;99.90;;;;;;5014663;28;20270;-67
2023/11/30 00:24:33;;;;;;;16.00;12.77;;;4.80;99.90;;;;;;5014182;28;20175;-67
2023/11/30 00:26:59;;;;;;;18.00;12.93;;;4.80;99.90;;;;;;5013914;28;20267;-67
2023/11/30 00:29:24;;;;;;;15.97;13.00;;;4.80;99.90;;;;;;5014124;28;20213;-67
2023/11/30 00:31:50;;;;;;;17.30;13.20;;;4.80;99.90;;;;;;5014320;28;20222;-67
2023/11/30 00:34:16;;;;;;;15.60;12.10;;;4.90;99.90;;;;;;5013386;28;20258;-67
2023/11/30 00:36:42;;;;;;;13.90;11.20;;;4.90;99.90;;;;;;5013110;28;20482;-67
2023/11/30 00:39:08;;;;;;;17.27;12.30;;;4.80;99.90;;;;;;4996776;28;20607;-67
2023/11/30 00:41:34;;;;;;;13.13;11.25;;;4.90;99.90;;;;;;5014293;28;20228;-67
2023/11/30 00:43:59;;;;;;;16.40;11.60;;;4.60;99.90;;;;;;5012036;28;20624;-67
2023/11/30 00:46:25;;;;;;;15.93;12.43;;;4.70;99.90;;;;;;5013757;28;20183;-66
2023/11/30 00:48:51;;;;;;;15.53;12.63;;;4.70;99.90;;;;;;5013230;28;20253;-66
2023/11/30 00:51:17;;;;;;;18.50;13.00;;;4.70;99.90;;;;;;5014150;28;20191;-66
2023/11/30 00:53:43;;;;;;;19.33;12.50;;;4.70;99.90;;;;;;4995823;28;20405;-66
2023/11/30 00:56:11;;;;;;;19.70;12.70;;;4.80;99.90;;;;;;4996126;28;20202;-66
2023/11/30 00:58:36;;;;;;;19.55;12.88;;;4.70;99.90;;;;;;4996631;28;20179;-66
2023/11/30 01:01:02;;;;;;;15.40;12.27;;;4.70;99.90;;;;;;5013344;28;20675;-66
2023/11/30 01:03:28;;;;;;;17.33;12.77;;;4.80;99.90;;;;;;5013375;28;20689;-66
2023/11/30 01:05:54;;;;;;;16.23;12.47;;;4.70;99.90;;;;;;5012152;28;20768;-66
2023/11/30 01:08:19;;;;;;;17.90;11.77;;;4.80;99.90;;;;;;4996284;28;20171;-67
2023/11/30 01:10:45;;;;;;;19.67;13.13;;;4.80;99.90;;;;;;5013027;28;20631;-66
2023/11/30 01:13:11;;;;;;;17.67;12.97;;;4.80;99.90;;;;;;5013677;28;20274;-67
2023/11/30 01:15:37;;;;;;;17.40;13.23;;;4.90;99.90;;;;;;5013812;28;20210;-67
2023/11/30 01:18:05;;;;;;;17.67;12.37;;;4.90;99.90;;;;;;5013270;28;20406;-67
2023/11/30 01:20:34;;;;;;;14.30;10.88;;;4.90;99.90;;;;;;5012863;28;20646;-67
2023/11/30 01:23:00;;;;;;;16.85;11.48;;;4.80;99.90;;;;;;5011492;28;20183;-67
2023/11/30 01:25:26;;;;;;;15.55;11.88;;;4.80;99.90;;;;;;5013414;28;20245;-67
2023/11/30 01:27:52;;;;;;;17.27;12.27;;;4.80;99.90;;;;;;5012753;28;20250;-66
2023/11/30 01:30:18;;;;;;;17.70;12.93;;;4.70;99.90;;;;;;5013366;28;20194;-66
2023/11/30 01:32:44;;;;;;;19.30;11.70;;;4.70;99.90;;;;;;5012109;28;20950;-66
2023/11/30 01:35:10;;;;;;;16.67;12.10;;;4.70;99.90;;;;;;5011992;28;20294;-67
2023/11/30 01:37:38;;;;;;;18.05;12.32;;;4.70;99.90;;;;;;4995490;28;20396;-67
2023/11/30 01:40:08;;;;;;;19.98;13.15;;;4.70;99.90;;;;;;5012586;28;20182;-67
2023/11/30 01:42:34;;;;;;;21.50;12.65;;;4.80;99.90;;;;;;4995631;28;20179;-67
2023/11/30 01:45:00;;;;;;;18.50;12.40;;;4.80;99.90;;;;;;5012349;28;20490;-67
2023/11/30 01:47:29;;;;;;;19.40;12.82;;;5.00;99.90;;;;;;5013128;28;20163;-67
2023/11/30 01:49:54;;;;;;;19.80;13.95;;;4.90;99.90;;;;;;4994218;28;20171;-67
2023/11/30 01:52:20;;;;;;;19.93;12.83;;;4.90;99.90;;;;;;5012533;28;20219;-67
2023/11/30 01:54:46;;;;;;;20.53;13.77;;;4.90;99.90;;;;;;4994510;28;20985;-67
2023/11/30 01:57:12;;;;;;;20.67;13.30;;;5.00;99.90;;;;;;5012940;28;20414;-67
2023/11/30 01:59:38;;;;;;;16.77;12.00;;;4.60;99.90;;;;;;5012936;28;20381;-67
2023/11/30 02:02:04;;;;;;;19.73;13.43;;;5.00;99.90;;;;;;5012266;28;20957;-67
2023/11/30 02:04:31;;;;;;;18.90;13.27;;;4.90;99.90;;;;;;4994595;28;20249;-68
2023/11/30 02:06:57;;;;;;;18.45;12.30;;;4.80;99.90;;;;;;5011717;28;20476;-67
2023/11/30 02:09:24;;;;;;;20.77;12.90;;;4.80;99.90;;;;;;5012716;28;20191;-67
2023/11/30 02:11:50;;;;;;;19.40;12.93;;;4.80;99.90;;;;;;4994747;28;20176;-68
2023/11/30 02:14:17;;;;;;;19.20;13.30;;;4.80;99.90;;;;;;5012896;28;20202;-67
2023/11/30 02:16:43;;;;;;;16.10;11.73;;;4.80;99.90;;;;;;5012346;28;20290;-61
2023/11/30 02:19:08;;;;;;;21.77;12.80;;;4.70;99.90;;;;;;5012846;28;20597;-67
2023/11/30 02:21:34;;;;;;;16.83;12.00;;;4.70;99.90;;;;;;5012347;28;20214;-67
2023/11/30 02:24:01;;;;;;;19.53;13.37;;;4.70;99.90;;;;;;5012146;28;20607;-67
2023/11/30 02:26:27;;;;;;;18.88;12.35;;;4.70;99.90;;;;;;5012491;28;20179;-67
2023/11/30 02:28:53;;;;;;;17.70;12.07;;;4.70;99.90;;;;;;5012400;28;20226;-67
2023/11/30 02:31:18;;;;;;;20.90;13.10;;;4.50;99.90;;;;;;5012715;28;20265;-67
2023/11/30 02:33:44;;;;;;;20.37;13.10;;;4.60;99.90;;;;;;5010865;28;20208;-66
2023/11/30 02:36:12;;;;;;;20.77;13.50;;;4.80;99.90;;;;;;5012774;28;20211;-67
2023/11/30 02:38:38;;;;;;;19.65;12.63;;;4.60;99.90;;;;;;5012436;28;20182;-67
2023/11/30 02:41:04;;;;;;;23.17;14.30;;;4.70;99.90;;;;;;5009928;28;20508;-68
2023/11/30 02:43:29;;;;;;;23.13;13.60;;;4.60;99.90;;;;;;4994098;28;20403;-68
2023/11/30 02:45:55;;;;;;;20.27;13.47;;;4.60;99.90;;;;;;5011745;28;20918;-67
2023/11/30 02:48:21;;;;;;;21.50;14.52;;;4.50;99.90;;;;;;4995078;28;20409;-67
2023/11/30 02:50:47;;;;;;;21.37;14.00;;;4.60;99.90;;;;;;4994292;28;20175;-66
2023/11/30 02:53:13;;;;;;;26.13;14.87;;;4.50;99.90;;;;;;5011954;28;20461;-67
2023/11/30 02:55:39;;;;;;;23.20;14.00;;;4.60;99.90;;;;;;5012345;28;20671;-67
2023/11/30 02:58:04;;;;;;;20.50;14.10;;;4.60;99.90;;;;;;5011559;28;20556;-67
2023/11/30 03:00:30;;;;;;;23.10;14.80;;;4.80;99.90;;;;;;5010778;28;20401;-67
2023/11/30 03:02:56;;;;;;;23.00;14.17;;;4.60;99.90;;;;;;5011804;28;20206;-67
2023/11/30 03:05:22;;;;;;;22.87;14.43;;;4.50;99.90;;;;;;5011217;28;20539;-68
2023/11/30 03:07:47;;;;;;;21.20;14.30;;;4.60;99.90;;;;;;5014167;28;20186;-66
2023/11/30 03:10:13;;;;;;;21.00;14.23;;;4.60;99.90;;;;;;5016000;28;20182;-68
2023/11/30 03:12:39;;;;;;;25.73;14.73;;;4.70;99.90;;;;;;5015932;28;20198;-68
2023/11/30 03:15:05;;;;;;;21.03;13.20;;;4.50;99.90;;;;;;4998904;28;20237;-67
2023/11/30 03:17:31;;;;;;;27.30;16.15;;;4.60;99.90;;;;;;4996306;28;20179;-68
2023/11/30 03:19:57;;;;;;;24.90;15.33;;;4.70;99.90;;;;;;5002294;28;20179;-67
2023/11/30 03:22:22;;;;;;;23.20;14.00;;;4.70;99.90;;;;;;5015812;28;20262;-67
2023/11/30 03:24:48;;;;;;;21.70;13.97;;;4.80;99.90;;;;;;5014739;28;20179;-66
2023/11/30 03:27:14;;;;;;;26.10;15.50;;;4.60;99.90;;;;;;5015164;28;20620;-67
2023/11/30 03:29:40;;;;;;;21.40;14.10;;;4.70;99.90;;;;;;5014685;28;20183;-67
2023/11/30 03:32:06;;;;;;;22.50;14.70;;;4.60;99.90;;;;;;5014096;28;20176;-67
2023/11/30 03:34:32;;;;;;;18.70;13.93;;;4.60;99.90;;;;;;4998155;28;20611;-67
2023/11/30 03:36:57;;;;;;;20.20;13.93;;;4.30;99.90;;;;;;5014393;28;20283;-67
2023/11/30 03:39:23;;;;;;;18.53;13.70;;;4.60;99.90;;;;;;4998255;28;20258;-67
2023/11/30 03:41:50;;;;;;;22.00;14.07;;;4.50;99.90;;;;;;5014813;28;20171;-67
2023/11/30 03:44:16;;;;;;;23.73;13.95;;;4.50;99.90;;;;;;5015358;28;20173;-67
2023/11/30 03:46:42;;;;;;;19.20;13.90;;;4.60;99.90;;;;;;5015363;28;20266;-67
2023/11/30 03:49:07;;;;;;;20.93;12.73;;;4.60;99.90;;;;;;5014958;28;20402;-67
2023/11/30 03:51:33;;;;;;;22.73;14.70;;;4.60;99.90;;;;;;5014157;28;20207;-67
2023/11/30 03:54:00;;;;;;;20.48;13.07;;;4.60;99.90;;;;;;5014666;28;20233;-67
2023/11/30 03:56:26;;;;;;;17.83;12.67;;;4.30;99.90;;;;;;4997558;28;20211;-67
2023/11/30 03:58:51;;;;;;;21.83;13.87;;;4.40;99.90;;;;;;5012842;28;20210;-66
2023/11/30 04:01:22;;;;;;;19.70;13.57;;;4.70;99.90;;;;;;5014558;28;20230;-66
2023/11/30 04:03:49;;;;;;;17.77;11.75;;;4.60;99.90;;;;;;5014501;28;20183;-66
2023/11/30 04:06:22;;;;;;;19.70;13.35;;;4.50;99.90;;;;;;5015033;28;20242;-66
2023/11/30 04:08:49;;;;;;;18.75;12.85;;;4.50;99.90;;;;;;5014991;28;20160;-67
2023/11/30 04:11:15;;;;;;;17.13;12.30;;;4.50;99.90;;;;;;5014929;28;20171;-67
2023/11/30 04:13:44;;;;;;;18.45;13.32;;;4.10;99.90;;;;;;5014538;28;20180;-67
2023/11/30 04:16:14;;;;;;;18.35;13.68;;;4.50;99.90;;;;;;5014370;28;20199;-67
2023/11/30 04:18:39;;;;;;;19.17;12.88;;;4.60;99.90;;;;;;4996600;28;20183;-68
2023/11/30 04:21:05;;;;;;;17.10;13.27;;;4.40;99.90;;;;;;5013464;28;20221;-66
2023/11/30 04:23:31;;;;;;;18.23;11.83;;;4.40;99.90;;;;;;5014779;28;20179;-67
2023/11/30 04:25:57;;;;;;;20.47;12.80;;;4.50;99.90;;;;;;5013780;28;20464;-67
2023/11/30 04:28:23;;;;;;;20.20;13.17;;;4.40;99.90;;;;;;4996070;28;20258;-67
2023/11/30 04:30:48;;;;;;;23.33;12.87;;;4.70;99.90;;;;;;5012497;28;20180;-67
2023/11/30 04:33:14;;;;;;;17.20;12.20;;;4.50;99.90;;;;;;5012029;28;20216;-67
2023/11/30 04:35:40;;;;;;;20.03;12.33;;;3.90;99.90;;;;;;5011661;28;20494;-67
2023/11/30 04:38:06;;;;;;;17.43;12.13;;;4.40;99.90;;;;;;5013748;28;20179;-67
2023/11/30 04:40:32;;;;;;;17.90;12.13;;;4.50;99.90;;;;;;5014479;28;20178;-67
2023/11/30 04:42:57;;;;;;;21.50;12.03;;;4.50;99.90;;;;;;5013353;28;20186;-67
2023/11/30 04:45:23;;;;;;;18.33;11.70;;;4.50;99.90;;;;;;4980550;28;20401;-67
2023/11/30 04:47:49;;;;;;;17.70;11.20;;;4.50;99.90;;;;;;5014127;28;20373;-67
2023/11/30 04:50:15;;;;;;;15.75;12.30;;;4.10;99.90;;;;;;5013518;28;20175;-66
2023/11/30 04:52:41;;;;;;;19.13;13.37;;;4.40;99.90;;;;;;5013596;28;20223;-67
2023/11/30 04:55:07;;;;;;;20.77;14.13;;;4.50;99.90;;;;;;5013310;28;20222;-67
2023/11/30 04:57:33;;;;;;;22.38;15.35;;;4.50;99.90;;;;;;5014287;28;20574;-67
2023/11/30 04:59:59;;;;;;;24.10;15.10;;;4.50;99.90;;;;;;5009443;28;20183;-66
2023/11/30 05:02:25;;;;;;;21.53;13.93;;;4.50;99.90;;;;;;5010828;28;20197;-67
2023/11/30 05:04:50;;;;;;;19.67;12.97;;;4.50;99.90;;;;;;5013901;28;20262;-67
2023/11/30 05:07:16;;;;;;;22.53;14.37;;;4.50;99.90;;;;;;5012270;28;20187;-67
2023/11/30 05:09:42;;;;;;;22.90;14.07;;;4.20;99.90;;;;;;5012798;28;20187;-67
2023/11/30 05:12:07;;;;;;;21.43;13.97;;;4.60;99.90;;;;;;5012923;28;20171;-66
2023/11/30 05:14:33;;;;;;;21.47;13.60;;;4.60;99.90;;;;;;5012468;28;20268;-68
2023/11/30 05:16:59;;;;;;;22.23;14.70;;;4.50;99.90;;;;;;5012121;28;20677;-66
2023/11/30 05:19:25;;;;;;;19.60;13.90;;;4.70;99.90;;;;;;5012723;28;20747;-66
2023/11/30 05:21:51;;;;;;;17.40;12.40;;;4.70;99.90;;;;;;4995584;28;20179;-67
2023/11/30 05:24:17;;;;;;;23.40;14.10;;;4.60;99.90;;;;;;5012376;28;20554;-66
2023/11/30 05:26:43;;;;;;;25.80;14.90;;;4.60;99.90;;;;;;5013136;28;20235;-63
2023/11/30 05:29:09;;;;;;;22.07;13.50;;;4.60;99.90;;;;;;5012089;28;20219;-66
2023/11/30 05:31:34;;;;;;;21.50;13.53;;;4.60;99.90;;;;;;5012563;28;20187;-67
2023/11/30 05:34:00;;;;;;;22.17;14.70;;;4.60;99.90;;;;;;5011843;28;20175;-67
2023/11/30 05:36:26;;;;;;;18.63;12.97;;;4.60;99.90;;;;;;5013059;28;20207;-66
2023/11/30 05:38:51;;;;;;;23.87;12.87;;;4.80;99.90;;;;;;5011059;28;20179;-65
2023/11/30 05:41:17;;;;;;;21.87;14.30;;;4.20;99.90;;;;;;5011333;28;20245;-68
2023/11/30 05:43:43;;;;;;;22.50;13.10;;;4.70;99.90;;;;;;5012338;28;20179;-66
2023/11/30 05:46:10;;;;;;;20.83;13.70;;;4.60;99.90;;;;;;4995046;28;20176;-69
2023/11/30 05:48:36;;;;;;;23.45;14.75;;;4.50;99.90;;;;;;4994607;28;20179;-68
2023/11/30 05:51:02;;;;;;;22.50;14.47;;;4.70;99.90;;;;;;5011593;28;20234;-67
2023/11/30 05:53:28;;;;;;;19.65;14.23;;;4.70;99.90;;;;;;5012684;28;20277;-67
2023/11/30 05:55:54;;;;;;;19.63;14.03;;;4.70;99.90;;;;;;4994654;28;20207;-67
2023/11/30 05:58:20;;;;;;;20.90;14.10;;;4.70;99.90;;;;;;5011550;28;20178;-66
2023/11/30 06:00:45;;;;;;;22.30;14.90;;;4.70;99.90;;;;;;5011976;28;20907;-66
2023/11/30 06:03:11;;;;;;;24.67;14.57;;;4.70;99.90;;;;;;5009082;28;20227;-67
2023/11/30 06:05:37;;;;;;;21.43;14.40;;;4.70;99.90;;;;;;5010719;28;20622;-63
2023/11/30 06:08:03;;;;;;;18.80;13.03;;;4.30;99.90;;;;;;5011938;28;20266;-69
2023/11/30 06:10:28;;;;;;;21.03;13.50;;;4.60;99.90;;;;;;5010111;28;20182;-71
2023/11/30 06:12:54;;;;;;;22.87;13.97;;;4.20;99.90;;;;;;5012936;28;20627;-71
2023/11/30 06:15:20;;;;;;;18.43;12.87;;;4.60;99.90;;;;;;5008115;28;20511;-71
2023/11/30 06:17:45;;;;;;;19.70;13.30;;;4.60;99.90;;;;;;5011364;28;20619;-72
2023/11/30 06:20:12;;;;;;;23.33;14.10;;;4.80;99.90;;;;;;4989952;28;20176;-70
2023/11/30 06:22:39;;;;;;;21.88;14.07;;;4.60;99.90;;;;;;4994879;28;20192;-70
2023/11/30 06:25:05;;;;;;;22.27;13.20;;;4.30;99.90;;;;;;5002301;28;20194;-69
2023/11/30 06:27:31;;;;;;;21.33;12.77;;;4.70;99.90;;;;;;5012731;28;20572;-70
2023/11/30 06:29:57;;;;;;;17.20;12.52;;;4.80;99.90;;;;;;5010761;28;20198;-64
2023/11/30 06:32:23;;;;;;;17.25;12.18;;;4.70;99.90;;;;;;4993420;28;20762;-70
2023/11/30 06:34:49;;;;;;;21.13;14.30;;;4.70;99.90;;;;;;5012098;28;20175;-70
2023/11/30 06:37:15;;;;;;;21.17;14.00;;;4.80;99.90;;;;;;5011882;28;20211;-70
2023/11/30 06:39:41;;;;;;;20.00;13.63;;;4.90;99.90;;;;;;5007111;28;20397;-67
2023/11/30 06:42:07;;;;;;;24.08;12.98;;;4.70;99.90;;;;;;5010157;28;20238;-67
2023/11/30 06:44:33;;;;;;;21.20;14.10;;;4.70;99.90;;;;;;5009992;28;21255;-66
2023/11/30 06:46:59;;;;;;;18.93;13.77;;;4.80;99.90;;;;;;5009922;28;20183;-66
2023/11/30 06:49:24;;;;;;;17.63;12.05;;;4.70;99.90;;;;;;5014939;28;20210;-68
2023/11/30 06:51:51;;;;;;;23.20;14.20;;;4.70;99.90;;;;;;5015606;28;20663;-67
2023/11/30 06:54:17;;;;;;;20.23;13.25;;;4.70;99.90;;;;;;5004583;28;20191;-67
2023/11/30 06:56:42;;;;;;;19.03;13.20;;;4.70;99.90;;;;;;5012625;28;20207;-67
2023/11/30 06:59:09;;;;;;;20.83;12.80;;;4.80;99.90;;;;;;5015646;28;20179;-67
2023/11/30 07:01:36;;;;;;;20.83;13.45;;;4.20;99.90;;;;;;5002948;28;20191;-68
2023/11/30 07:04:02;;;;;;;19.25;14.05;;;4.60;99.90;;;;;;5011916;28;20180;-67
2023/11/30 07:06:28;;;;;;;18.25;13.10;;;4.70;99.90;;;;;;5010944;28;20266;-67
2023/11/30 07:08:53;;;;;;;17.90;13.10;;;4.70;99.90;;;;;;4995211;28;20262;-67
2023/11/30 07:11:19;;;;;;;20.00;14.13;;;4.80;99.90;;;;;;5014197;28;20425;-67
2023/11/30 07:13:45;;;;;;;20.03;12.73;;;4.70;99.90;;;;;;4997448;28;20214;-67
2023/11/30 07:16:10;;;;;;;22.10;13.53;;;4.80;99.90;;;;;;5004750;28;20234;-67
2023/11/30 07:18:37;;;;;;;19.97;13.50;;;4.20;99.90;;;;;;5016012;28;20266;-67
2023/11/30 07:21:04;;;;;;;18.50;12.57;;;4.70;99.90;;;;;;5011250;28;20180;-67
2023/11/30 07:23:30;;;;;;;15.85;11.40;;;4.50;99.90;;;;;;5014902;28;20202;-67
2023/11/30 07:25:58;;;;;;;17.48;13.30;;;4.70;99.90;;;;;;5009010;28;20183;-67
2023/11/30 07:28:25;;;;;;;21.25;15.25;;;4.60;99.90;;;;;;5009922;28;20513;-68
2023/11/30 07:30:51;;;;;;;20.83;14.35;;;4.80;99.90;;;;;;5014753;28;20186;-69
2023/11/30 07:33:17;;;;;;;17.00;12.80;;;4.80;99.90;;;;;;5014706;28;20214;-69
2023/11/30 07:35:42;;;;;;;19.43;13.17;;;4.90;99.90;;;;;;5014288;28;20199;-69
2023/11/30 07:38:08;;;;;;;22.63;16.27;;;4.90;99.90;;;;;;5004910;28;20914;-68
2023/11/30 07:40:34;;;;;;;21.77;14.57;;;5.00;99.90;;;;;;5015037;28;20191;-68
2023/11/30 07:43:00;;;;;;;20.83;15.10;;;5.10;99.90;;;;;;5013488;28;20506;-68
2023/11/30 07:45:28;;;;;;;21.92;15.23;;;5.10;99.90;;;;;;4993937;28;20183;-72
2023/11/30 07:47:56;;;;;;;21.08;14.55;;;5.10;99.90;;;;;;5015200;28;20206;-69
2023/11/30 07:50:22;;;;;;;19.48;13.38;;;5.10;99.90;;;;;;5005119;28;20184;-70
2023/11/30 07:52:48;;;;;;;18.88;14.18;;;5.30;99.90;;;;;;4999644;28;20576;-73
2023/11/30 07:55:14;;;;;;;20.00;14.20;;;5.10;99.90;;;;;;5014007;28;20179;-70
2023/11/30 07:57:40;;;;;;;22.27;15.20;;;5.10;99.90;;;;;;5013606;28;20266;-70
2023/11/30 08:00:11;;;;;;;22.83;15.03;;;4.90;99.90;;;;;;5011816;28;20438;-70
2023/11/30 08:02:37;;;;;;;19.90;13.80;;;5.10;99.90;;;;;;5014027;28;20214;-70
2023/11/30 08:05:05;;;;;;;17.92;12.80;;;4.50;99.90;;;;;;5012490;28;20280;-62
2023/11/30 08:07:31;;;;;;;17.10;13.10;;;4.90;99.90;;;;;;5013946;28;20226;-71
2023/11/30 08:09:57;;;;;;;18.58;13.38;;;4.50;99.90;;;;;;4993111;28;20585;-68
2023/11/30 08:12:23;;;;;;;20.47;14.20;;;4.60;99.90;;;;;;5005217;28;20191;-71
2023/11/30 08:14:48;;;;;;;22.23;13.97;;;4.90;99.90;;;;;;5012038;28;20183;-72
2023/11/30 08:17:14;;;;;;;19.87;14.87;;;4.90;99.90;;;;;;4979286;28;20718;-71
2023/11/30 08:19:40;;;;;;;20.88;13.88;;;5.00;99.90;;;;;;4989629;28;20195;-71
2023/11/30 08:22:09;;;;;;;16.80;13.00;;;5.00;99.90;;;;;;4999625;28;20527;-71
2023/11/30 08:24:36;;;;;;;19.63;13.93;;;5.10;99.90;;;;;;5003652;28;20533;-69
2023/11/30 08:27:03;;;;;;;22.27;14.70;;;4.60;99.90;;;;;;5005794;28;20191;-72
2023/11/30 08:29:28;;;;;;;22.30;14.95;;;4.50;99.90;;;;;;5007091;28;20189;-71
2023/11/30 08:31:54;;;;;;;21.67;14.83;;;4.70;99.90;;;;;;4998605;28;20263;-71
2023/11/30 08:34:20;;;;;;;20.00;14.30;;;4.50;99.90;;;;;;4996954;28;20211;-72
2023/11/30 08:36:47;;;;;;;20.90;14.00;;;4.70;99.90;;;;;;5011479;28;20202;-71
2023/11/30 08:39:13;;;;;;;23.50;12.90;;;4.60;99.90;;;;;;4995920;28;20418;-71
2023/11/30 08:41:38;;;;;;;20.70;14.33;;;4.60;99.90;;;;;;4995545;28;20183;-72
2023/11/30 08:44:05;;;;;;;21.97;13.50;;;4.70;99.90;;;;;;5011895;28;20244;-72
2023/11/30 08:46:31;;;;;;;469.52;256.95;;;4.80;99.90;;;;;;5012365;28;20196;-71
2023/11/30 08:48:57;;;;;;;141.13;73.17;;;5.00;99.90;;;;;;4995829;28;20179;-71
2023/11/30 08:51:24;;;;;;;34.30;22.43;;;4.90;99.90;;;;;;5011672;28;20184;-70
2023/11/30 08:53:49;;;;;;;22.17;15.90;;;4.90;99.90;;;;;;4993724;28;20412;-70
2023/11/30 08:56:15;;;;;;;20.20;14.80;;;5.00;99.90;;;;;;5010696;28;20238;-70
2023/11/30 08:58:41;;;;;;;20.27;13.53;;;5.10;99.90;;;;;;4995099;28;20258;-69
2023/11/30 09:01:07;;;;;;;17.40;14.40;;;5.10;99.90;;;;;;5013407;28;20426;-66
2023/11/30 09:03:33;;;;;;;18.93;14.57;;;5.10;99.90;;;;;;5003332;28;20428;-72
2023/11/30 09:05:59;;;;;;;19.50;14.40;;;5.10;99.90;;;;;;5011123;28;20496;-70
2023/11/30 09:08:24;;;;;;;17.87;14.07;;;4.80;99.90;;;;;;5012445;28;20187;-71
2023/11/30 09:10:50;;;;;;;18.70;13.73;;;5.50;99.90;;;;;;5011557;28;20184;-72
2023/11/30 09:13:16;;;;;;;16.17;12.60;;;6.40;99.90;;;;;;4992420;28;20179;-71
2023/11/30 09:15:42;;;;;;;17.73;13.60;;;7.40;99.90;;;;;;5007343;28;20541;-71
2023/11/30 09:18:10;;;;;;;15.10;12.33;;;8.80;99.90;;;;;;4994014;28;20813;-65
2023/11/30 09:20:36;;;;;;;15.93;13.17;;;10.00;97.50;;;;;;5012373;28;20434;-71
2023/11/30 09:23:03;;;;;;;17.27;13.60;;;11.00;93.30;;;;;;5013312;28;20414;-72
2023/11/30 09:25:29;;;;;;;15.10;13.50;;;12.00;90.00;;;;;;5011964;28;20568;-70
2023/11/30 09:27:55;;;;;;;18.57;14.10;;;13.00;85.90;;;;;;5012774;28;20515;-70
2023/11/30 09:30:21;;;;;;;16.97;15.13;;;13.90;79.80;;;;;;5013242;28;20814;-70
2023/11/30 09:32:47;;;;;;;15.03;13.43;;;14.60;76.60;;;;;;5011810;28;20186;-70
2023/11/30 09:35:12;;;;;;;15.10;13.40;;;15.10;70.30;;;;;;5011249;28;20190;-65
2023/11/30 09:37:38;;;;;;;15.90;14.30;;;15.30;70.40;;;;;;5011957;28;20205;-70
2023/11/30 09:40:09;;;;;;;17.57;15.03;;;15.70;68.90;;;;;;5013513;28;20245;-71
2023/11/30 09:42:35;;;;;;;15.13;13.53;;;16.00;68.30;;;;;;5012028;28;20175;-71
2023/11/30 09:45:04;;;;;;;15.13;13.60;;;16.20;66.10;;;;;;5013217;28;20762;-71
2023/11/30 09:47:31;;;;;;;17.07;15.37;;;16.20;65.00;;;;;;4980015;28;20179;-72
2023/11/30 09:49:57;;;;;;;16.90;15.30;;;16.30;65.00;;;;;;4996956;28;20504;-72
2023/11/30 09:52:23;;;;;;;16.10;14.40;;;16.60;64.50;;;;;;4994930;28;20493;-71
2023/11/30 09:54:52;;;;;;;15.77;14.37;;;17.00;63.20;;;;;;5012200;28;20468;-73
2023/11/30 09:57:18;;;;;;;16.77;15.00;;;17.00;62.20;;;;;;4994136;28;20486;-72
2023/11/30 09:59:44;;;;;;;17.53;15.67;;;17.00;60.40;;;;;;5013416;28;20788;-72
2023/11/30 10:02:10;;;;;;;15.13;13.73;;;16.90;62.30;;;;;;5011893;28;20182;-65
2023/11/30 10:04:39;;;;;;;15.87;14.30;;;16.80;61.70;;;;;;5012270;28;20182;-71
2023/11/30 10:07:05;;;;;;;16.03;14.50;;;16.60;62.30;;;;;;4993964;28;20441;-70
2023/11/30 10:09:33;;;;;;;16.80;15.27;;;16.20;60.60;;;;;;5011147;28;20651;-71
2023/11/30 10:11:59;;;;;;;15.87;14.17;;;15.40;62.50;;;;;;5011992;28;20213;-69
2023/11/30 10:14:25;;;;;;;15.43;13.80;;;15.10;65.30;;;;;;5010643;28;20437;-70
2023/11/30 10:16:51;;;;;;;16.57;14.77;;;14.90;65.00;;;;;;4994429;28;20982;-70
2023/11/30 10:19:17;;;;;;;14.80;13.30;;;14.70;66.30;;;;;;5011708;28;20235;-69
2023/11/30 10:21:43;;;;;;;15.03;13.53;;;14.40;67.70;;;;;;5012844;28;20181;-70
2023/11/30 10:24:09;;;;;;;14.60;13.10;;;14.20;68.10;;;;;;5011570;28;20439;-70
2023/11/30 10:26:36;;;;;;;15.00;13.47;;;13.90;68.40;;;;;;5011166;28;20198;-70
2023/11/30 10:29:04;;;;;;;14.83;13.27;;;13.60;71.10;;;;;;4995272;28;20617;-70
2023/11/30 10:31:33;;;;;;;15.87;13.30;;;13.40;74.30;;;;;;5011188;28;20425;-70
2023/11/30 10:34:07;;;;;;;14.93;13.40;;;13.20;74.80;;;;;;4994125;28;20440;-70
2023/11/30 10:36:33;;;;;;;15.20;13.53;;;13.10;76.20;;;;;;5012096;28;20571;-70
2023/11/30 10:39:18;;;;;;;15.27;13.70;;;13.00;76.60;;;;;;5011350;28;20548;-70
2023/11/30 10:41:55;;;;;;;14.53;12.80;;;12.80;76.60;;;;;;5011830;28;20440;-70
2023/11/30 10:44:31;;;;;;;14.53;13.03;;;12.70;79.10;;;;;;5010812;28;20428;-70
2023/11/30 10:46:59;;;;;;;15.37;13.87;;;12.50;81.60;;;;;;5011151;28;20430;-71
2023/11/30 10:49:27;;;;;;;14.90;13.30;;;12.50;80.40;;;;;;5011750;28;20416;-71
2023/11/30 10:51:59;;;;;;;15.33;12.70;;;12.40;81.30;;;;;;5011015;28;20458;-71
2023/11/30 10:54:49;;;;;;;13.70;12.20;;;12.40;80.50;;;;;;5010773;28;20424;-71
2023/11/30 10:57:18;;;;;;;13.30;11.97;;;12.40;80.40;;;;;;5011903;28;20857;-70
2023/11/30 10:59:44;;;;;;;15.07;13.57;;;12.30;79.40;;;;;;5011489;28;20438;-71
2023/11/30 11:02:12;;;;;;;13.33;11.93;;;12.40;80.00;;;;;;4994154;28;20429;-70
2023/11/30 11:04:42;;;;;;;15.43;13.00;;;12.40;80.50;;;;;;5010644;28;20833;-71
2023/11/30 11:07:13;;;;;;;13.23;12.03;;;12.30;81.70;;;;;;4993790;28;20930;-70
2023/11/30 11:09:43;;;;;;;12.40;11.20;;;12.30;81.50;;;;;;5010738;28;20454;-71
2023/11/30 11:12:39;;;;;;;13.97;12.43;;;12.30;80.30;;;;;;5011043;28;20968;-71
2023/11/30 11:15:11;;;;;;;14.60;12.10;;;12.40;80.50;;;;;;4994090;28;20438;-65
2023/11/30 11:17:47;;;;;;;15.20;12.83;;;12.40;82.80;;;;;;5011331;28;20944;-71
2023/11/30 11:20:22;;;;;;;13.27;11.90;;;12.40;81.10;;;;;;5012069;28;20419;-71
2023/11/30 11:22:48;;;;;;;14.37;12.83;;;12.30;79.50;;;;;;5011213;28;20463;-71
2023/11/30 11:25:16;;;;;;;16.67;12.70;;;12.20;81.50;;;;;;5011241;28;20468;-70
2023/11/30 11:27:42;;;;;;;15.20;13.37;;;12.20;85.60;;;;;;5012928;28;20496;-71
2023/11/30 11:30:08;;;;;;;14.97;13.30;;;12.30;82.80;;;;;;5014546;28;20864;-71
2023/11/30 11:32:39;;;;;;;14.90;13.40;;;12.40;84.10;;;;;;5015078;28;20188;-71
2023/11/30 11:35:06;;;;;;;14.27;12.77;;;12.50;83.50;;;;;;5015606;28;20418;-71
2023/11/30 11:37:32;;;;;;;14.87;12.27;;;12.50;84.90;;;;;;5013327;28;20794;-71
2023/11/30 11:39:59;;;;;;;13.87;12.43;;;12.60;83.60;;;;;;4986165;28;20413;-71
2023/11/30 11:42:25;;;;;;;13.43;11.70;;;12.70;81.30;;;;;;4997379;28;20507;-71
2023/11/30 11:44:51;;;;;;;12.40;10.80;;;12.80;81.00;;;;;;5014500;28;20511;-72
2023/11/30 11:47:17;;;;;;;12.53;10.93;;;12.70;79.40;;;;;;5012542;28;20184;-65
2023/11/30 11:49:43;;;;;;;11.97;10.87;;;12.70;80.10;;;;;;5008941;28;20437;-71
2023/11/30 11:52:09;;;;;;;12.63;11.33;;;12.70;80.30;;;;;;5005545;28;20948;-71
2023/11/30 11:54:35;;;;;;;13.50;12.10;;;12.70;82.30;;;;;;5006000;28;20504;-70
2023/11/30 11:57:02;;;;;;;12.10;11.00;;;12.60;82.00;;;;;;5007326;28;20202;-71
2023/11/30 11:59:31;;;;;;;12.40;11.20;;;12.60;79.70;;;;;;5012022;28;20468;-73
2023/11/30 12:01:59;;;;;;;13.20;11.90;;;12.50;80.40;;;;;;5011715;28;20423;-69
2023/11/30 12:04:28;;;;;;;12.53;11.23;;;12.40;79.60;;;;;;5013482;28;20517;-69
2023/11/30 12:06:54;;;;;;;16.37;13.43;;;12.30;79.50;;;;;;5013832;28;20968;-69
2023/11/30 12:09:20;;;;;;;13.07;11.77;;;12.30;83.60;;;;;;5013401;28;20402;-68
2023/11/30 12:11:47;;;;;;;13.73;11.90;;;12.60;81.50;;;;;;4997014;28;20425;-69
2023/11/30 12:14:15;;;;;;;13.27;11.77;;;12.60;80.40;;;;;;5013997;28;20212;-69
2023/11/30 12:16:42;;;;;;;13.83;12.43;;;12.40;80.30;;;;;;5013048;28;20466;-69
2023/11/30 12:19:08;;;;;;;13.83;12.20;;;12.10;79.80;;;;;;5011527;28;20817;-69
2023/11/30 12:21:35;;;;;;;14.07;12.60;;;11.80;80.50;;;;;;5013211;28;20429;-69
2023/11/30 12:24:02;;;;;;;12.53;11.33;;;11.70;83.70;;;;;;5012864;28;20445;-69
2023/11/30 12:26:28;;;;;;;13.17;11.57;;;11.70;89.30;;;;;;5012354;28;20514;-69
2023/11/30 12:28:58;;;;;;;13.00;11.70;;;11.60;86.40;;;;;;5014171;28;20463;-69